Cresson, Texas
Current Conditions -  °F | °C
As of 4:55 PM on Thursday 27 Nov 2014 (Local Time) from KGDJ Reporting Station
Clear Clear  
Wind Chill: 59°   Ceiling: Unl
Heat Index: 59°   Visibility: 10mi
Dew Point: 26°   Wind: 5mph
Humidity: 28%   Direction: 130°SE
Pressure: 30.42"   Gusts: NA
Location:  32.53°N, 97.62°W
Report Text: KGDJ 272255Z AUTO 13004KT 10SM CLR 15/M03 A3042 RMK AO2 T01501034
Loading
Personal Weather Stations






























Interactive Weather Map New forecast layout! Learn more

10-Day Weather Forecast

Advertisements
Track Severe Weather on mobile